Impacts METAR Board
IDs:

KBWI - Baltimore-Washington, MD, US

Updated at: 1200 UTC 16 Sep 2019
Potential Impact None Slight Moderate High
Time 16/00Z 16/01Z 16/02Z 16/03Z 16/04Z 16/05Z 16/06Z 16/07Z 16/08Z 16/09Z 16/10Z 16/11Z 16/12Z
Temp80 72 70 68 64 63 63 63 62 64 64 63 68
Dewpt54 57 59 58 59 59 59 59 59 59 59 59 61
Altim30.09 30.09 30.10 30.10 30.10 30.09 30.09 30.07 30.07 30.07 30.07 30.07 30.07
VIS10 10 10 10 10 10 10 10 10 10 10 10 10
CIG-- -- -- -- -- -- -- -- -- 110 120 -- --
CoverFEWFEWSCTSCTSCTFEWFEWSCTSCTBKNBKNFEWFEW
FltCatVFRVFRVFRVFRVFRVFRVFRVFRVFRVFRVFRVFRVFR
WX--------------------------
WDir00028029003000290260000
WSpd0 0 0 3 3 0 3 0 3 4 0 0 0
WGst-- -- -- -- -- -- -- -- -- -- -- -- --
Raw hourly METARs
KBWI 152354Z 00000KT 10SM FEW090 FEW250 27/12 A3009 RMK AO2 SLP187 T02670122 10317 20250 55001
KBWI 160054Z 00000KT 10SM FEW250 22/14 A3009 RMK AO2 SLP188 T02220139
KBWI 160154Z 00000KT 10SM SCT250 21/15 A3010 RMK AO2 SLP190 T02110150
KBWI 160254Z 28003KT 10SM FEW160 SCT250 20/14 A3010 RMK AO2 SLP191 T02000144 53003
KBWI 160354Z 29003KT 10SM FEW160 SCT250 18/15 A3010 RMK AO2 SLP192 T01780150
KBWI 160454Z 00000KT 10SM FEW110 FEW160 17/15 A3009 RMK AO2 SLP188 T01720150 403170172
KBWI 160554Z 30003KT 10SM FEW110 17/15 A3009 RMK AO2 SLP188 T01720150 10272 20156 58003
KBWI 160654Z 00000KT 10SM SCT110 17/15 A3007 RMK AO2 SLP182 T01720150
KBWI 160754Z 29003KT 10SM SCT110 17/15 A3007 RMK AO2 SLP180 T01670150
KBWI 160854Z 26004KT 10SM BKN110 18/15 A3007 RMK AO2 SLP180 T01780150 56008
KBWI 160954Z 00000KT 10SM BKN120 18/15 A3007 RMK AO2 SLP180 T01780150
KBWI 161054Z 00000KT 10SM FEW120 17/15 A3007 RMK AO2 SLP180 T01720150
KBWI 161154Z 00000KT 10SM FEW120 FEW250 20/16 A3007 RMK AO2 SLP181 T02000161 10200 20161 53001



Page loaded:  12:29 UTC  |   05:29 AM Pacific  |   06:29 AM Mountain  |   07:29 AM Central  |   08:29 AM Eastern

 

ADVISORIES

FORECASTS

FORECASTS

OBSERVATIONS

USER TOOLS

ABOUT US